sensor_id;sensor_type;location;lat;lon;timestamp;P1;durP1;ratioP1;P2;durP2;ratioP2
64832;SDS011;51290;45.060;38.948;2024-03-23T00:53:52;31.83;;;22.23;;
64832;SDS011;51290;45.060;38.948;2024-03-23T00:56:18;30.95;;;20.65;;
64832;SDS011;51290;45.060;38.948;2024-03-23T00:58:44;38.22;;;24.75;;
64832;SDS011;51290;45.060;38.948;2024-03-23T01:01:10;31.52;;;22.58;;
64832;SDS011;51290;45.060;38.948;2024-03-23T01:03:35;35.25;;;23.20;;
64832;SDS011;51290;45.060;38.948;2024-03-23T01:06:02;31.65;;;23.13;;
64832;SDS011;51290;45.060;38.948;2024-03-23T01:08:31;34.53;;;22.45;;
64832;SDS011;51290;45.060;38.948;2024-03-23T01:10:58;32.65;;;22.40;;
64832;SDS011;51290;45.060;38.948;2024-03-23T01:13:25;30.27;;;21.50;;
64832;SDS011;51290;45.060;38.948;2024-03-23T01:15:52;31.13;;;22.17;;
64832;SDS011;51290;45.060;38.948;2024-03-23T01:18:19;33.83;;;23.30;;
64832;SDS011;51290;45.060;38.948;2024-03-23T01:20:46;28.27;;;20.95;;
64832;SDS011;51290;45.060;38.948;2024-03-23T01:23:13;31.23;;;21.77;;
64832;SDS011;51290;45.060;38.948;2024-03-23T01:25:39;33.15;;;22.13;;
64832;SDS011;51290;45.060;38.948;2024-03-23T01:28:05;34.75;;;22.00;;
64832;SDS011;51290;45.060;38.948;2024-03-23T01:30:34;45.08;;;28.02;;
64832;SDS011;51290;45.060;38.948;2024-03-23T01:33:01;33.05;;;22.95;;
64832;SDS011;51290;45.060;38.948;2024-03-23T01:35:30;35.85;;;23.85;;
64832;SDS011;51290;45.060;38.948;2024-03-23T01:37:56;34.28;;;22.92;;
64832;SDS011;51290;45.060;38.948;2024-03-23T01:40:22;37.75;;;23.35;;
64832;SDS011;51290;45.060;38.948;2024-03-23T01:45:24;35.58;;;21.92;;
64832;SDS011;51290;45.060;38.948;2024-03-23T01:47:51;35.55;;;22.38;;
64832;SDS011;51290;45.060;38.948;2024-03-23T01:50:18;48.15;;;27.30;;
64832;SDS011;51290;45.060;38.948;2024-03-23T01:52:48;38.08;;;25.23;;
64832;SDS011;51290;45.060;38.948;2024-03-23T01:55:14;37.97;;;24.25;;
64832;SDS011;51290;45.060;38.948;2024-03-23T01:57:40;34.97;;;23.98;;
64832;SDS011;51290;45.060;38.948;2024-03-23T02:00:06;31.60;;;20.55;;
64832;SDS011;51290;45.060;38.948;2024-03-23T02:02:55;33.28;;;22.92;;
64832;SDS011;51290;45.060;38.948;2024-03-23T02:05:21;33.22;;;24.30;;
64832;SDS011;51290;45.060;38.948;2024-03-23T02:07:47;34.67;;;21.50;;
64832;SDS011;51290;45.060;38.948;2024-03-23T02:10:13;35.35;;;23.42;;
64832;SDS011;51290;45.060;38.948;2024-03-23T02:12:40;29.92;;;21.10;;
64832;SDS011;51290;45.060;38.948;2024-03-23T02:15:06;33.88;;;22.23;;
64832;SDS011;51290;45.060;38.948;2024-03-23T02:17:34;32.92;;;22.85;;
64832;SDS011;51290;45.060;38.948;2024-03-23T02:20:02;35.72;;;24.48;;
64832;SDS011;51290;45.060;38.948;2024-03-23T02:22:37;29.85;;;20.52;;
64832;SDS011;51290;45.060;38.948;2024-03-23T02:25:04;36.65;;;24.25;;
64832;SDS011;51290;45.060;38.948;2024-03-23T02:27:31;39.45;;;22.13;;
64832;SDS011;51290;45.060;38.948;2024-03-23T02:29:58;30.33;;;22.27;;
64832;SDS011;51290;45.060;38.948;2024-03-23T02:32:24;36.53;;;24.83;;
64832;SDS011;51290;45.060;38.948;2024-03-23T02:34:50;30.92;;;21.80;;
64832;SDS011;51290;45.060;38.948;2024-03-23T02:37:16;35.72;;;24.35;;
64832;SDS011;51290;45.060;38.948;2024-03-23T02:39:42;43.08;;;27.73;;
64832;SDS011;51290;45.060;38.948;2024-03-23T02:42:08;42.17;;;27.90;;
64832;SDS011;51290;45.060;38.948;2024-03-23T02:44:34;36.63;;;25.92;;
64832;SDS011;51290;45.060;38.948;2024-03-23T02:46:59;42.33;;;24.58;;
64832;SDS011;51290;45.060;38.948;2024-03-23T02:49:26;40.42;;;26.90;;
64832;SDS011;51290;45.060;38.948;2024-03-23T02:51:52;38.35;;;25.95;;
64832;SDS011;51290;45.060;38.948;2024-03-23T02:54:18;46.08;;;27.67;;
64832;SDS011;51290;45.060;38.948;2024-03-23T02:56:44;39.15;;;24.92;;
64832;SDS011;51290;45.060;38.948;2024-03-23T02:59:10;42.08;;;26.42;;
64832;SDS011;51290;45.060;38.948;2024-03-23T03:01:36;36.60;;;24.58;;
64832;SDS011;51290;45.060;38.948;2024-03-23T03:04:02;32.40;;;24.48;;
64832;SDS011;51290;45.060;38.948;2024-03-23T03:06:29;36.25;;;23.80;;
64832;SDS011;51290;45.060;38.948;2024-03-23T03:08:55;33.58;;;23.30;;
64832;SDS011;51290;45.060;38.948;2024-03-23T03:11:21;39.60;;;25.58;;
64832;SDS011;51290;45.060;38.948;2024-03-23T03:13:47;32.75;;;22.58;;
64832;SDS011;51290;45.060;38.948;2024-03-23T03:16:13;35.10;;;22.38;;
64832;SDS011;51290;45.060;38.948;2024-03-23T03:18:39;24.25;;;14.02;;
64832;SDS011;51290;45.060;38.948;2024-03-23T03:21:06;34.92;;;24.98;;
64832;SDS011;51290;45.060;38.948;2024-03-23T03:23:39;37.85;;;26.15;;
64832;SDS011;51290;45.060;38.948;2024-03-23T03:26:05;35.25;;;25.17;;
64832;SDS011;51290;45.060;38.948;2024-03-23T03:28:32;34.10;;;24.05;;
64832;SDS011;51290;45.060;38.948;2024-03-23T03:30:58;40.88;;;27.05;;
64832;SDS011;51290;45.060;38.948;2024-03-23T03:33:25;39.47;;;24.60;;
64832;SDS011;51290;45.060;38.948;2024-03-23T03:35:52;36.08;;;23.85;;
64832;SDS011;51290;45.060;38.948;2024-03-23T03:38:18;37.00;;;26.80;;
64832;SDS011;51290;45.060;38.948;2024-03-23T03:40:45;42.38;;;30.55;;
64832;SDS011;51290;45.060;38.948;2024-03-23T03:43:11;33.60;;;24.00;;
64832;SDS011;51290;45.060;38.948;2024-03-23T03:45:37;33.95;;;24.15;;
64832;SDS011;51290;45.060;38.948;2024-03-23T03:48:03;36.42;;;25.02;;
64832;SDS011;51290;45.060;38.948;2024-03-23T03:50:29;35.38;;;25.67;;
64832;SDS011;51290;45.060;38.948;2024-03-23T03:52:56;36.60;;;25.60;;
64832;SDS011;51290;45.060;38.948;2024-03-23T03:55:22;39.20;;;25.63;;
64832;SDS011;51290;45.060;38.948;2024-03-23T03:57:48;42.22;;;28.10;;
64832;SDS011;51290;45.060;38.948;2024-03-23T04:00:14;48.25;;;30.05;;
64832;SDS011;51290;45.060;38.948;2024-03-23T04:02:41;39.15;;;26.38;;
64832;SDS011;51290;45.060;38.948;2024-03-23T04:05:07;45.75;;;30.33;;
64832;SDS011;51290;45.060;38.948;2024-03-23T04:07:33;35.90;;;25.80;;
64832;SDS011;51290;45.060;38.948;2024-03-23T04:09:59;42.22;;;26.48;;
64832;SDS011;51290;45.060;38.948;2024-03-23T04:12:25;36.03;;;24.52;;
64832;SDS011;51290;45.060;38.948;2024-03-23T04:14:52;35.08;;;25.13;;
64832;SDS011;51290;45.060;38.948;2024-03-23T04:17:19;39.15;;;25.95;;
64832;SDS011;51290;45.060;38.948;2024-03-23T04:19:45;35.45;;;24.58;;
64832;SDS011;51290;45.060;38.948;2024-03-23T04:22:11;35.55;;;24.65;;
64832;SDS011;51290;45.060;38.948;2024-03-23T04:24:37;35.05;;;25.90;;
64832;SDS011;51290;45.060;38.948;2024-03-23T04:27:03;36.65;;;25.70;;
64832;SDS011;51290;45.060;38.948;2024-03-23T04:29:28;38.33;;;26.17;;
64832;SDS011;51290;45.060;38.948;2024-03-23T04:31:54;35.70;;;24.25;;
64832;SDS011;51290;45.060;38.948;2024-03-23T04:34:21;40.08;;;24.30;;
64832;SDS011;51290;45.060;38.948;2024-03-23T04:36:48;39.33;;;25.52;;
64832;SDS011;51290;45.060;38.948;2024-03-23T04:39:14;37.53;;;24.92;;
64832;SDS011;51290;45.060;38.948;2024-03-23T04:41:40;33.72;;;24.33;;
64832;SDS011;51290;45.060;38.948;2024-03-23T04:44:06;38.33;;;25.25;;
64832;SDS011;51290;45.060;38.948;2024-03-23T04:46:33;31.88;;;24.05;;
64832;SDS011;51290;45.060;38.948;2024-03-23T04:48:59;32.78;;;24.10;;
64832;SDS011;51290;45.060;38.948;2024-03-23T04:51:25;36.13;;;26.42;;
64832;SDS011;51290;45.060;38.948;2024-03-23T04:53:51;41.30;;;26.83;;
64832;SDS011;51290;45.060;38.948;2024-03-23T04:56:17;34.65;;;22.30;;
64832;SDS011;51290;45.060;38.948;2024-03-23T04:58:43;35.55;;;24.73;;
64832;SDS011;51290;45.060;38.948;2024-03-23T05:01:13;36.30;;;25.48;;
64832;SDS011;51290;45.060;38.948;2024-03-23T05:03:39;38.92;;;24.95;;
64832;SDS011;51290;45.060;38.948;2024-03-23T05:06:05;35.33;;;25.50;;
64832;SDS011;51290;45.060;38.948;2024-03-23T05:08:31;34.55;;;25.30;;
64832;SDS011;51290;45.060;38.948;2024-03-23T05:10:57;34.65;;;24.63;;
64832;SDS011;51290;45.060;38.948;2024-03-23T05:13:23;37.15;;;26.50;;
64832;SDS011;51290;45.060;38.948;2024-03-23T05:15:52;37.55;;;26.65;;
64832;SDS011;51290;45.060;38.948;2024-03-23T05:18:19;35.00;;;24.77;;
64832;SDS011;51290;45.060;38.948;2024-03-23T05:20:45;35.58;;;23.90;;
64832;SDS011;51290;45.060;38.948;2024-03-23T05:23:11;36.92;;;24.48;;
64832;SDS011;51290;45.060;38.948;2024-03-23T05:25:37;33.22;;;23.40;;
64832;SDS011;51290;45.060;38.948;2024-03-23T05:28:03;39.88;;;29.60;;
64832;SDS011;51290;45.060;38.948;2024-03-23T05:30:29;36.70;;;26.73;;
64832;SDS011;51290;45.060;38.948;2024-03-23T05:32:55;40.67;;;25.00;;
64832;SDS011;51290;45.060;38.948;2024-03-23T05:35:21;37.03;;;24.50;;
64832;SDS011;51290;45.060;38.948;2024-03-23T05:37:47;40.10;;;27.75;;
64832;SDS011;51290;45.060;38.948;2024-03-23T05:40:13;39.22;;;27.08;;
64832;SDS011;51290;45.060;38.948;2024-03-23T05:42:40;33.55;;;23.98;;
64832;SDS011;51290;45.060;38.948;2024-03-23T05:45:07;39.35;;;25.55;;
64832;SDS011;51290;45.060;38.948;2024-03-23T05:47:33;33.55;;;25.48;;
64832;SDS011;51290;45.060;38.948;2024-03-23T05:49:59;34.88;;;23.83;;
64832;SDS011;51290;45.060;38.948;2024-03-23T05:52:26;34.75;;;23.25;;
64832;SDS011;51290;45.060;38.948;2024-03-23T05:54:52;32.28;;;24.40;;
64832;SDS011;51290;45.060;38.948;2024-03-23T05:57:19;31.15;;;22.73;;
64832;SDS011;51290;45.060;38.948;2024-03-23T05:59:45;36.67;;;25.70;;
64832;SDS011;51290;45.060;38.948;2024-03-23T06:02:11;31.02;;;22.88;;
64832;SDS011;51290;45.060;38.948;2024-03-23T06:04:37;35.70;;;24.40;;
64832;SDS011;51290;45.060;38.948;2024-03-23T06:07:03;30.67;;;22.85;;
64832;SDS011;51290;45.060;38.948;2024-03-23T06:09:31;34.40;;;23.10;;
64832;SDS011;51290;45.060;38.948;2024-03-23T06:11:57;29.23;;;22.73;;
64832;SDS011;51290;45.060;38.948;2024-03-23T06:14:23;33.53;;;24.58;;
64832;SDS011;51290;45.060;38.948;2024-03-23T06:16:49;30.30;;;23.50;;
64832;SDS011;51290;45.060;38.948;2024-03-23T06:19:15;35.80;;;21.77;;
64832;SDS011;51290;45.060;38.948;2024-03-23T06:21:44;37.33;;;24.50;;
64832;SDS011;51290;45.060;38.948;2024-03-23T06:24:11;35.38;;;23.00;;
64832;SDS011;51290;45.060;38.948;2024-03-23T06:26:38;36.17;;;22.17;;
64832;SDS011;51290;45.060;38.948;2024-03-23T06:29:04;29.50;;;21.70;;
64832;SDS011;51290;45.060;38.948;2024-03-23T06:31:30;31.25;;;22.50;;
64832;SDS011;51290;45.060;38.948;2024-03-23T06:33:57;30.23;;;22.70;;
64832;SDS011;51290;45.060;38.948;2024-03-23T06:36:22;30.75;;;23.75;;
64832;SDS011;51290;45.060;38.948;2024-03-23T06:38:48;31.67;;;21.58;;
64832;SDS011;51290;45.060;38.948;2024-03-23T06:41:14;27.77;;;20.38;;
64832;SDS011;51290;45.060;38.948;2024-03-23T06:43:40;35.55;;;21.90;;
64832;SDS011;51290;45.060;38.948;2024-03-23T06:46:07;28.23;;;20.17;;
64832;SDS011;51290;45.060;38.948;2024-03-23T06:48:33;26.38;;;21.30;;
64832;SDS011;51290;45.060;38.948;2024-03-23T06:50:59;30.10;;;21.08;;
64832;SDS011;51290;45.060;38.948;2024-03-23T06:53:25;28.63;;;21.13;;
64832;SDS011;51290;45.060;38.948;2024-03-23T06:55:51;29.80;;;22.02;;
64832;SDS011;51290;45.060;38.948;2024-03-23T06:58:20;24.10;;;18.55;;
64832;SDS011;51290;45.060;38.948;2024-03-23T07:00:46;22.73;;;18.40;;
64832;SDS011;51290;45.060;38.948;2024-03-23T07:03:12;26.75;;;20.25;;
64832;SDS011;51290;45.060;38.948;2024-03-23T07:05:38;28.80;;;19.02;;
64832;SDS011;51290;45.060;38.948;2024-03-23T07:08:04;24.20;;;18.33;;
64832;SDS011;51290;45.060;38.948;2024-03-23T07:10:31;23.45;;;17.73;;
64832;SDS011;51290;45.060;38.948;2024-03-23T07:12:57;24.38;;;18.05;;
64832;SDS011;51290;45.060;38.948;2024-03-23T07:15:23;26.48;;;18.83;;
64832;SDS011;51290;45.060;38.948;2024-03-23T07:17:49;20.15;;;16.40;;
64832;SDS011;51290;45.060;38.948;2024-03-23T07:20:15;20.73;;;16.30;;
64832;SDS011;51290;45.060;38.948;2024-03-23T07:22:41;21.58;;;17.33;;
64832;SDS011;51290;45.060;38.948;2024-03-23T07:25:07;23.83;;;18.17;;
64832;SDS011;51290;45.060;38.948;2024-03-23T07:27:33;27.30;;;16.60;;
64832;SDS011;51290;45.060;38.948;2024-03-23T07:29:59;24.83;;;17.58;;
64832;SDS011;51290;45.060;38.948;2024-03-23T07:32:26;22.58;;;17.10;;
64832;SDS011;51290;45.060;38.948;2024-03-23T07:34:52;22.55;;;16.55;;
64832;SDS011;51290;45.060;38.948;2024-03-23T07:37:18;17.95;;;14.70;;
64832;SDS011;51290;45.060;38.948;2024-03-23T07:39:44;18.27;;;14.65;;
64832;SDS011;51290;45.060;38.948;2024-03-23T07:42:10;23.58;;;14.77;;
64832;SDS011;51290;45.060;38.948;2024-03-23T07:44:36;21.45;;;14.60;;
64832;SDS011;51290;45.060;38.948;2024-03-23T07:52:27;21.45;;;17.00;;
64832;SDS011;51290;45.060;38.948;2024-03-23T07:54:54;21.95;;;15.48;;
64832;SDS011;51290;45.060;38.948;2024-03-23T07:57:20;22.35;;;16.90;;
64832;SDS011;51290;45.060;38.948;2024-03-23T07:59:46;19.63;;;16.15;;
64832;SDS011;51290;45.060;38.948;2024-03-23T08:02:12;19.27;;;14.10;;
64832;SDS011;51290;45.060;38.948;2024-03-23T08:04:38;19.40;;;13.98;;
64832;SDS011;51290;45.060;38.948;2024-03-23T08:07:04;18.85;;;14.40;;
64832;SDS011;51290;45.060;38.948;2024-03-23T08:09:30;17.90;;;13.82;;
64832;SDS011;51290;45.060;38.948;2024-03-23T08:11:56;20.80;;;13.50;;
64832;SDS011;51290;45.060;38.948;2024-03-23T08:14:22;23.88;;;13.13;;
64832;SDS011;51290;45.060;38.948;2024-03-23T08:16:48;18.23;;;14.25;;
64832;SDS011;51290;45.060;38.948;2024-03-23T08:19:15;20.20;;;16.17;;
64832;SDS011;51290;45.060;38.948;2024-03-23T08:21:41;18.10;;;14.45;;
64832;SDS011;51290;45.060;38.948;2024-03-23T08:24:07;14.32;;;10.88;;
64832;SDS011;51290;45.060;38.948;2024-03-23T08:26:33;16.98;;;13.95;;
64832;SDS011;51290;45.060;38.948;2024-03-23T08:28:59;23.48;;;15.20;;
64832;SDS011;51290;45.060;38.948;2024-03-23T08:31:25;22.13;;;12.65;;
64832;SDS011;51290;45.060;38.948;2024-03-23T08:33:51;17.35;;;13.82;;
64832;SDS011;51290;45.060;38.948;2024-03-23T08:36:17;16.98;;;12.35;;
64832;SDS011;51290;45.060;38.948;2024-03-23T08:38:43;17.90;;;14.23;;
64832;SDS011;51290;45.060;38.948;2024-03-23T08:41:09;16.30;;;12.32;;
64832;SDS011;51290;45.060;38.948;2024-03-23T08:43:37;18.63;;;13.50;;
64832;SDS011;51290;45.060;38.948;2024-03-23T08:46:07;17.77;;;12.73;;
64832;SDS011;51290;45.060;38.948;2024-03-23T08:48:44;19.25;;;14.07;;
64832;SDS011;51290;45.060;38.948;2024-03-23T08:51:12;17.15;;;13.00;;
64832;SDS011;51290;45.060;38.948;2024-03-23T08:53:39;15.63;;;11.50;;
64832;SDS011;51290;45.060;38.948;2024-03-23T08:56:06;15.93;;;12.88;;
64832;SDS011;51290;45.060;38.948;2024-03-23T08:58:33;16.90;;;12.35;;
64832;SDS011;51290;45.060;38.948;2024-03-23T09:01:10;17.23;;;13.27;;
64832;SDS011;51290;45.060;38.948;2024-03-23T09:03:40;16.52;;;12.00;;
64832;SDS011;51290;45.060;38.948;2024-03-23T09:06:10;16.58;;;12.25;;
64832;SDS011;51290;45.060;38.948;2024-03-23T09:08:38;13.85;;;11.45;;
64832;SDS011;51290;45.060;38.948;2024-03-23T09:11:09;17.23;;;12.32;;
64832;SDS011;51290;45.060;38.948;2024-03-23T09:13:37;20.63;;;13.40;;
64832;SDS011;51290;45.060;38.948;2024-03-23T09:16:04;14.02;;;10.70;;
64832;SDS011;51290;45.060;38.948;2024-03-23T09:18:32;14.45;;;11.80;;
64832;SDS011;51290;45.060;38.948;2024-03-23T09:21:01;16.10;;;11.77;;
64832;SDS011;51290;45.060;38.948;2024-03-23T09:23:28;16.80;;;12.02;;
64832;SDS011;51290;45.060;38.948;2024-03-23T09:25:55;18.05;;;13.52;;
64832;SDS011;51290;45.060;38.948;2024-03-23T09:28:21;17.85;;;12.15;;
64832;SDS011;51290;45.060;38.948;2024-03-23T09:30:48;17.50;;;13.00;;
64832;SDS011;51290;45.060;38.948;2024-03-23T09:33:13;15.63;;;12.15;;
64832;SDS011;51290;45.060;38.948;2024-03-23T09:35:40;14.45;;;12.00;;
64832;SDS011;51290;45.060;38.948;2024-03-23T09:38:07;15.63;;;12.23;;
64832;SDS011;51290;45.060;38.948;2024-03-23T09:40:34;15.85;;;10.85;;
64832;SDS011;51290;45.060;38.948;2024-03-23T09:43:00;15.80;;;11.80;;
64832;SDS011;51290;45.060;38.948;2024-03-23T09:45:27;14.85;;;11.05;;
64832;SDS011;51290;45.060;38.948;2024-03-23T09:47:57;14.05;;;9.85;;
64832;SDS011;51290;45.060;38.948;2024-03-23T09:50:23;12.57;;;9.75;;
64832;SDS011;51290;45.060;38.948;2024-03-23T09:52:49;12.00;;;9.50;;
64832;SDS011;51290;45.060;38.948;2024-03-23T09:55:15;13.88;;;10.05;;
64832;SDS011;51290;45.060;38.948;2024-03-23T09:57:41;14.57;;;11.13;;
64832;SDS011;51290;45.060;38.948;2024-03-23T10:00:07;14.43;;;10.93;;
64832;SDS011;51290;45.060;38.948;2024-03-23T10:02:34;16.08;;;10.80;;
64832;SDS011;51290;45.060;38.948;2024-03-23T10:05:01;14.38;;;10.13;;
64832;SDS011;51290;45.060;38.948;2024-03-23T10:07:27;12.95;;;10.35;;
64832;SDS011;51290;45.060;38.948;2024-03-23T10:09:56;13.38;;;9.80;;
64832;SDS011;51290;45.060;38.948;2024-03-23T10:12:22;14.90;;;9.73;;
64832;SDS011;51290;45.060;38.948;2024-03-23T10:14:49;15.20;;;8.63;;
64832;SDS011;51290;45.060;38.948;2024-03-23T10:17:16;12.27;;;9.15;;
64832;SDS011;51290;45.060;38.948;2024-03-23T10:19:46;13.13;;;9.32;;
64832;SDS011;51290;45.060;38.948;2024-03-23T10:22:17;15.63;;;10.23;;
64832;SDS011;51290;45.060;38.948;2024-03-23T10:24:46;11.02;;;8.60;;
64832;SDS011;51290;45.060;38.948;2024-03-23T10:27:18;10.57;;;8.75;;
64832;SDS011;51290;45.060;38.948;2024-03-23T10:29:48;24.38;;;10.13;;
64832;SDS011;51290;45.060;38.948;2024-03-23T10:32:17;12.63;;;9.55;;
64832;SDS011;51290;45.060;38.948;2024-03-23T10:34:44;13.88;;;9.88;;
64832;SDS011;51290;45.060;38.948;2024-03-23T10:37:10;11.93;;;8.95;;
64832;SDS011;51290;45.060;38.948;2024-03-23T10:39:37;14.27;;;8.93;;
64832;SDS011;51290;45.060;38.948;2024-03-23T10:42:05;15.68;;;9.65;;
64832;SDS011;51290;45.060;38.948;2024-03-23T10:44:36;11.75;;;8.80;;
64832;SDS011;51290;45.060;38.948;2024-03-23T10:47:02;14.85;;;9.63;;
64832;SDS011;51290;45.060;38.948;2024-03-23T10:49:29;14.73;;;10.27;;
64832;SDS011;51290;45.060;38.948;2024-03-23T10:51:59;13.80;;;8.93;;
64832;SDS011;51290;45.060;38.948;2024-03-23T10:54:26;10.82;;;8.30;;
64832;SDS011;51290;45.060;38.948;2024-03-23T10:56:56;10.93;;;8.00;;
64832;SDS011;51290;45.060;38.948;2024-03-23T10:59:23;11.70;;;9.05;;
64832;SDS011;51290;45.060;38.948;2024-03-23T11:01:57;11.70;;;8.50;;
64832;SDS011;51290;45.060;38.948;2024-03-23T11:07:00;11.82;;;8.15;;
64832;SDS011;51290;45.060;38.948;2024-03-23T11:09:52;11.73;;;8.90;;
64832;SDS011;51290;45.060;38.948;2024-03-23T11:17:21;10.68;;;7.03;;
64832;SDS011;51290;45.060;38.948;2024-03-23T11:25:24;11.20;;;7.30;;
64832;SDS011;51290;45.060;38.948;2024-03-23T11:27:52;9.02;;;6.45;;
64832;SDS011;51290;45.060;38.948;2024-03-23T11:30:23;9.60;;;6.45;;
64832;SDS011;51290;45.060;38.948;2024-03-23T11:32:50;9.10;;;5.70;;
64832;SDS011;51290;45.060;38.948;2024-03-23T11:35:25;8.40;;;5.63;;
64832;SDS011;51290;45.060;38.948;2024-03-23T11:38:12;10.18;;;7.68;;
64832;SDS011;51290;45.060;38.948;2024-03-23T11:40:40;9.40;;;5.80;;
64832;SDS011;51290;45.060;38.948;2024-03-23T11:43:09;8.48;;;6.10;;
64832;SDS011;51290;45.060;38.948;2024-03-23T11:45:43;14.98;;;7.30;;
64832;SDS011;51290;45.060;38.948;2024-03-23T11:48:19;11.43;;;7.00;;
64832;SDS011;51290;45.060;38.948;2024-03-23T11:50:47;9.85;;;7.07;;
64832;SDS011;51290;45.060;38.948;2024-03-23T11:53:15;11.50;;;7.47;;
64832;SDS011;51290;45.060;38.948;2024-03-23T11:55:54;9.48;;;6.05;;
64832;SDS011;51290;45.060;38.948;2024-03-23T11:58:22;8.70;;;6.40;;
64832;SDS011;51290;45.060;38.948;2024-03-23T12:00:54;8.55;;;6.22;;
64832;SDS011;51290;45.060;38.948;2024-03-23T12:03:24;8.82;;;6.40;;
64832;SDS011;51290;45.060;38.948;2024-03-23T12:05:54;11.00;;;6.45;;
64832;SDS011;51290;45.060;38.948;2024-03-23T12:08:22;9.00;;;6.78;;
64832;SDS011;51290;45.060;38.948;2024-03-23T12:10:52;7.53;;;5.65;;
64832;SDS011;51290;45.060;38.948;2024-03-23T12:13:29;8.18;;;6.07;;
64832;SDS011;51290;45.060;38.948;2024-03-23T12:15:56;7.07;;;5.35;;
64832;SDS011;51290;45.060;38.948;2024-03-23T12:18:47;7.30;;;5.43;;
64832;SDS011;51290;45.060;38.948;2024-03-23T12:21:15;7.22;;;5.00;;
64832;SDS011;51290;45.060;38.948;2024-03-23T12:23:42;9.90;;;5.40;;
64832;SDS011;51290;45.060;38.948;2024-03-23T12:26:10;7.60;;;5.20;;
64832;SDS011;51290;45.060;38.948;2024-03-23T12:28:37;11.18;;;6.18;;
64832;SDS011;51290;45.060;38.948;2024-03-23T12:31:04;10.48;;;5.38;;
64832;SDS011;51290;45.060;38.948;2024-03-23T12:33:30;7.22;;;5.32;;
64832;SDS011;51290;45.060;38.948;2024-03-23T12:35:56;11.23;;;5.82;;
64832;SDS011;51290;45.060;38.948;2024-03-23T12:38:22;9.50;;;5.57;;
64832;SDS011;51290;45.060;38.948;2024-03-23T12:40:48;7.07;;;5.10;;
64832;SDS011;51290;45.060;38.948;2024-03-23T12:43:15;8.50;;;5.55;;
64832;SDS011;51290;45.060;38.948;2024-03-23T12:45:50;8.02;;;5.72;;
64832;SDS011;51290;45.060;38.948;2024-03-23T12:48:16;9.43;;;5.82;;
64832;SDS011;51290;45.060;38.948;2024-03-23T12:50:42;7.35;;;5.07;;
64832;SDS011;51290;45.060;38.948;2024-03-23T12:53:08;7.30;;;4.80;;
64832;SDS011;51290;45.060;38.948;2024-03-23T12:55:35;9.85;;;4.97;;
64832;SDS011;51290;45.060;38.948;2024-03-23T12:58:01;7.30;;;4.68;;
64832;SDS011;51290;45.060;38.948;2024-03-23T13:00:27;11.27;;;6.22;;
64832;SDS011;51290;45.060;38.948;2024-03-23T13:02:53;11.52;;;7.18;;
64832;SDS011;51290;45.060;38.948;2024-03-23T13:05:19;10.60;;;6.47;;
64832;SDS011;51290;45.060;38.948;2024-03-23T13:07:45;8.75;;;6.40;;
64832;SDS011;51290;45.060;38.948;2024-03-23T13:10:11;9.55;;;6.60;;
64832;SDS011;51290;45.060;38.948;2024-03-23T13:12:36;10.05;;;7.05;;
64832;SDS011;51290;45.060;38.948;2024-03-23T13:15:02;12.35;;;7.13;;
64832;SDS011;51290;45.060;38.948;2024-03-23T13:17:29;10.65;;;7.43;;
64832;SDS011;51290;45.060;38.948;2024-03-23T13:19:55;11.45;;;7.57;;
64832;SDS011;51290;45.060;38.948;2024-03-23T13:22:21;10.02;;;7.90;;
64832;SDS011;51290;45.060;38.948;2024-03-23T13:24:47;13.55;;;8.02;;
64832;SDS011;51290;45.060;38.948;2024-03-23T13:27:13;14.00;;;8.27;;
64832;SDS011;51290;45.060;38.948;2024-03-23T13:29:39;14.45;;;7.97;;
64832;SDS011;51290;45.060;38.948;2024-03-23T13:32:05;9.85;;;7.55;;
64832;SDS011;51290;45.060;38.948;2024-03-23T13:34:32;10.75;;;8.15;;
64832;SDS011;51290;45.060;38.948;2024-03-23T13:37:00;12.18;;;8.13;;
64832;SDS011;51290;45.060;38.948;2024-03-23T13:39:26;13.75;;;8.65;;
64832;SDS011;51290;45.060;38.948;2024-03-23T13:41:55;19.63;;;8.70;;
64832;SDS011;51290;45.060;38.948;2024-03-23T13:44:21;14.43;;;9.23;;
64832;SDS011;51290;45.060;38.948;2024-03-23T13:46:47;12.68;;;8.88;;
64832;SDS011;51290;45.060;38.948;2024-03-23T13:51:55;12.05;;;7.97;;
64832;SDS011;51290;45.060;38.948;2024-03-23T13:54:23;12.98;;;8.65;;
64832;SDS011;51290;45.060;38.948;2024-03-23T13:56:53;14.82;;;12.27;;
64832;SDS011;51290;45.060;38.948;2024-03-23T13:59:20;13.30;;;8.65;;
64832;SDS011;51290;45.060;38.948;2024-03-23T14:01:48;15.52;;;9.10;;
64832;SDS011;51290;45.060;38.948;2024-03-23T14:04:14;14.27;;;8.15;;
64832;SDS011;51290;45.060;38.948;2024-03-23T14:06:44;14.25;;;8.43;;
64832;SDS011;51290;45.060;38.948;2024-03-23T14:09:14;11.82;;;8.48;;
64832;SDS011;51290;45.060;38.948;2024-03-23T14:11:41;12.95;;;8.15;;
64832;SDS011;51290;45.060;38.948;2024-03-23T14:14:08;13.35;;;7.03;;
64832;SDS011;51290;45.060;38.948;2024-03-23T14:16:34;13.27;;;8.95;;
64832;SDS011;51290;45.060;38.948;2024-03-23T14:19:00;17.95;;;8.98;;
64832;SDS011;51290;45.060;38.948;2024-03-23T14:21:26;16.48;;;9.02;;
64832;SDS011;51290;45.060;38.948;2024-03-23T14:23:52;12.52;;;7.97;;
64832;SDS011;51290;45.060;38.948;2024-03-23T14:26:20;17.25;;;8.70;;
64832;SDS011;51290;45.060;38.948;2024-03-23T14:28:46;18.35;;;8.98;;
64832;SDS011;51290;45.060;38.948;2024-03-23T14:31:12;15.70;;;8.77;;
64832;SDS011;51290;45.060;38.948;2024-03-23T14:33:38;14.05;;;8.98;;
64832;SDS011;51290;45.060;38.948;2024-03-23T14:36:07;14.63;;;8.93;;
64832;SDS011;51290;45.060;38.948;2024-03-23T14:38:33;17.13;;;7.90;;
64832;SDS011;51290;45.060;38.948;2024-03-23T14:40:59;16.08;;;9.27;;
64832;SDS011;51290;45.060;38.948;2024-03-23T14:43:27;15.02;;;10.23;;
64832;SDS011;51290;45.060;38.948;2024-03-23T14:46:09;14.65;;;8.30;;
64832;SDS011;51290;45.060;38.948;2024-03-23T14:48:40;22.23;;;16.83;;
64832;SDS011;51290;45.060;38.948;2024-03-23T14:51:07;14.35;;;7.80;;
64832;SDS011;51290;45.060;38.948;2024-03-23T14:53:34;9.30;;;7.00;;
64832;SDS011;51290;45.060;38.948;2024-03-23T14:56:02;10.30;;;6.53;;
64832;SDS011;51290;45.060;38.948;2024-03-23T14:58:28;8.88;;;5.95;;
64832;SDS011;51290;45.060;38.948;2024-03-23T15:01:04;8.82;;;5.68;;
64832;SDS011;51290;45.060;38.948;2024-03-23T15:03:35;8.57;;;5.68;;
64832;SDS011;51290;45.060;38.948;2024-03-23T15:06:01;8.43;;;5.75;;
64832;SDS011;51290;45.060;38.948;2024-03-23T15:08:28;9.00;;;5.93;;
64832;SDS011;51290;45.060;38.948;2024-03-23T15:10:54;7.70;;;5.38;;
64832;SDS011;51290;45.060;38.948;2024-03-23T15:13:20;10.18;;;7.38;;
64832;SDS011;51290;45.060;38.948;2024-03-23T15:15:49;9.32;;;6.63;;
64832;SDS011;51290;45.060;38.948;2024-03-23T15:18:16;12.65;;;6.85;;
64832;SDS011;51290;45.060;38.948;2024-03-23T15:20:57;10.48;;;6.90;;
64832;SDS011;51290;45.060;38.948;2024-03-23T15:23:28;11.20;;;6.70;;
64832;SDS011;51290;45.060;38.948;2024-03-23T15:25:58;11.18;;;7.00;;
64832;SDS011;51290;45.060;38.948;2024-03-23T15:28:25;14.82;;;7.10;;
64832;SDS011;51290;45.060;38.948;2024-03-23T15:31:06;9.98;;;6.32;;